Airfield :
LOGIN :

Register | Disclaimer

   EN    FR    IT 

 










Legend :    VFR   Marginal VFR   IFR   Intensive IFR   Very Intensive IFR
Visi :
Ceiling :
>= 8 km
>= 3000ft
5 to 8 km
1000 to 3000 ft
1500m to 5 km
500 to 1000 ft
800 to 1500m
200 to 500 ft
< 800m
< 200 ft
Symbols :   Thunderstorms  Fog  Heavy snow  Heavy precipitations  Wind > 20 kt
SIGMETs :     Misc.  Thunderstorms  Icing  Turbulence  Mountain Waves  Volcanic Ashes






- Airport Elevation : 1161 ft
- IATA code : RJL


LELO - Logroño-Agoncillo

CURRENT METAR :
  • 131930Z 18005KT CAVOK 21/04 Q1013

EXPIRED METARs :
  • 131900Z 16008KT CAVOK 23/04 Q1013
  • 131830Z 16009KT CAVOK 23/05 Q1012
  • 131800Z 16007KT CAVOK 24/06 Q1012
  • 131730Z 17009KT CAVOK 26/06 Q1012
  • 131700Z 16009KT 140V200 CAVOK 27/06 Q1012

TAF TAF LELO
Valid from the 13 at 18:00 until the 14 at 03:00 UTC


131700Z 1318/1403 27011KT CAVOK
PROB30
TEMPO 1318/1320 18010KT
BECMG 1321/1323 09010KT



MET'MAP, your aeronautical weather chart ! - Copyright ORBIFLY December 2007 - Disclaimer

ORBIFLY MET'MAP TEAM :

Programming & Development : Alexandra Zaïnal
Concept & Development : Baudouin d'Aumeries
Co-Development & Prog : Marc-Olivier Méhu
Technical & hardware support : Manuel Goepfert

Contact : metmap@orbifly.com




SOURCES & CREDITS :

   NOAA